sensor_id;sensor_type;location;lat;lon;timestamp;temperature;humidity
4366;DHT22;2196;47.422;9.656;2023-09-18T00:01:24;23.30;99.90
4366;DHT22;2196;47.422;9.656;2023-09-18T00:03:51;23.20;99.90
4366;DHT22;2196;47.422;9.656;2023-09-18T00:06:18;23.20;99.90
4366;DHT22;2196;47.422;9.656;2023-09-18T00:08:45;23.30;99.90
4366;DHT22;2196;47.422;9.656;2023-09-18T00:11:12;23.20;99.90
4366;DHT22;2196;47.422;9.656;2023-09-18T00:13:40;23.30;99.90
4366;DHT22;2196;47.422;9.656;2023-09-18T00:16:07;23.40;99.90
4366;DHT22;2196;47.422;9.656;2023-09-18T00:18:34;23.30;99.90
4366;DHT22;2196;47.422;9.656;2023-09-18T00:21:01;23.30;99.90
4366;DHT22;2196;47.422;9.656;2023-09-18T00:23:28;23.40;99.90
4366;DHT22;2196;47.422;9.656;2023-09-18T00:25:55;23.40;99.90
4366;DHT22;2196;47.422;9.656;2023-09-18T00:28:22;23.50;99.90
4366;DHT22;2196;47.422;9.656;2023-09-18T00:30:50;23.50;99.90
4366;DHT22;2196;47.422;9.656;2023-09-18T00:33:17;23.50;99.90
4366;DHT22;2196;47.422;9.656;2023-09-18T00:35:48;23.50;99.90
4366;DHT22;2196;47.422;9.656;2023-09-18T00:38:15;23.50;99.90
4366;DHT22;2196;47.422;9.656;2023-09-18T00:40:42;23.50;99.90
4366;DHT22;2196;47.422;9.656;2023-09-18T00:43:09;23.40;99.90
4366;DHT22;2196;47.422;9.656;2023-09-18T00:45:40;23.50;99.90
4366;DHT22;2196;47.422;9.656;2023-09-18T00:48:11;23.50;99.90
4366;DHT22;2196;47.422;9.656;2023-09-18T00:50:38;23.50;99.90
4366;DHT22;2196;47.422;9.656;2023-09-18T00:53:07;23.50;99.90
4366;DHT22;2196;47.422;9.656;2023-09-18T00:55:36;23.40;99.90
4366;DHT22;2196;47.422;9.656;2023-09-18T00:58:04;23.40;99.90
4366;DHT22;2196;47.422;9.656;2023-09-18T01:00:32;23.50;99.90
4366;DHT22;2196;47.422;9.656;2023-09-18T01:02:59;23.60;99.90
4366;DHT22;2196;47.422;9.656;2023-09-18T01:05:28;23.80;99.90
4366;DHT22;2196;47.422;9.656;2023-09-18T01:07:56;23.80;99.90
4366;DHT22;2196;47.422;9.656;2023-09-18T01:10:24;23.80;99.90
4366;DHT22;2196;47.422;9.656;2023-09-18T01:13:04;23.70;99.90
4366;DHT22;2196;47.422;9.656;2023-09-18T01:15:35;23.70;99.90
4366;DHT22;2196;47.422;9.656;2023-09-18T01:18:03;23.60;99.90
4366;DHT22;2196;47.422;9.656;2023-09-18T01:20:32;23.50;99.90
4366;DHT22;2196;47.422;9.656;2023-09-18T01:23:00;23.50;99.90
4366;DHT22;2196;47.422;9.656;2023-09-18T01:25:27;23.40;99.90
4366;DHT22;2196;47.422;9.656;2023-09-18T01:27:57;23.40;99.90
4366;DHT22;2196;47.422;9.656;2023-09-18T01:30:24;23.30;99.90
4366;DHT22;2196;47.422;9.656;2023-09-18T01:32:52;23.30;99.90
4366;DHT22;2196;47.422;9.656;2023-09-18T01:35:20;23.30;99.90
4366;DHT22;2196;47.422;9.656;2023-09-18T01:37:49;23.30;99.90
4366;DHT22;2196;47.422;9.656;2023-09-18T01:40:18;23.40;99.90
4366;DHT22;2196;47.422;9.656;2023-09-18T01:42:46;23.40;99.90
4366;DHT22;2196;47.422;9.656;2023-09-18T01:45:13;23.50;99.90
4366;DHT22;2196;47.422;9.656;2023-09-18T01:47:40;23.40;99.90
4366;DHT22;2196;47.422;9.656;2023-09-18T01:50:08;23.30;99.90
4366;DHT22;2196;47.422;9.656;2023-09-18T01:52:35;23.30;99.90
4366;DHT22;2196;47.422;9.656;2023-09-18T01:55:02;23.40;99.90
4366;DHT22;2196;47.422;9.656;2023-09-18T01:57:32;23.40;99.90
4366;DHT22;2196;47.422;9.656;2023-09-18T01:59:59;23.50;99.90
4366;DHT22;2196;47.422;9.656;2023-09-18T02:02:25;23.60;99.90
4366;DHT22;2196;47.422;9.656;2023-09-18T02:04:52;23.50;99.90
4366;DHT22;2196;47.422;9.656;2023-09-18T02:07:19;23.70;99.90
4366;DHT22;2196;47.422;9.656;2023-09-18T02:09:46;23.60;99.90
4366;DHT22;2196;47.422;9.656;2023-09-18T02:12:13;23.70;99.90
4366;DHT22;2196;47.422;9.656;2023-09-18T02:14:45;23.60;99.90
4366;DHT22;2196;47.422;9.656;2023-09-18T02:17:12;23.50;99.90
4366;DHT22;2196;47.422;9.656;2023-09-18T02:19:39;23.40;99.90
4366;DHT22;2196;47.422;9.656;2023-09-18T02:22:06;23.30;99.90
4366;DHT22;2196;47.422;9.656;2023-09-18T02:24:33;23.10;99.90
4366;DHT22;2196;47.422;9.656;2023-09-18T02:27:00;22.90;99.90
4366;DHT22;2196;47.422;9.656;2023-09-18T02:29:27;22.80;99.90
4366;DHT22;2196;47.422;9.656;2023-09-18T02:31:55;22.60;99.90
4366;DHT22;2196;47.422;9.656;2023-09-18T02:34:22;22.40;99.90
4366;DHT22;2196;47.422;9.656;2023-09-18T02:36:49;22.20;99.90
4366;DHT22;2196;47.422;9.656;2023-09-18T02:39:16;22.10;99.90
4366;DHT22;2196;47.422;9.656;2023-09-18T02:41:43;22.00;99.90
4366;DHT22;2196;47.422;9.656;2023-09-18T02:44:10;21.90;99.90
4366;DHT22;2196;47.422;9.656;2023-09-18T02:46:37;21.80;99.90
4366;DHT22;2196;47.422;9.656;2023-09-18T02:49:06;21.70;99.90
4366;DHT22;2196;47.422;9.656;2023-09-18T02:51:33;21.60;99.90
4366;DHT22;2196;47.422;9.656;2023-09-18T02:54:00;21.60;99.90
4366;DHT22;2196;47.422;9.656;2023-09-18T02:56:27;21.50;99.90
4366;DHT22;2196;47.422;9.656;2023-09-18T02:58:54;21.50;99.90
4366;DHT22;2196;47.422;9.656;2023-09-18T03:01:20;21.40;99.90
4366;DHT22;2196;47.422;9.656;2023-09-18T03:03:47;21.30;99.90
4366;DHT22;2196;47.422;9.656;2023-09-18T03:06:16;21.40;99.90
4366;DHT22;2196;47.422;9.656;2023-09-18T03:08:43;21.60;99.90
4366;DHT22;2196;47.422;9.656;2023-09-18T03:11:13;21.90;99.90
4366;DHT22;2196;47.422;9.656;2023-09-18T03:13:45;22.20;99.90
4366;DHT22;2196;47.422;9.656;2023-09-18T03:16:13;22.50;99.90
4366;DHT22;2196;47.422;9.656;2023-09-18T03:18:40;22.70;99.90
4366;DHT22;2196;47.422;9.656;2023-09-18T03:21:06;22.90;99.90
4366;DHT22;2196;47.422;9.656;2023-09-18T03:23:35;23.10;99.90
4366;DHT22;2196;47.422;9.656;2023-09-18T03:26:02;23.20;99.90
4366;DHT22;2196;47.422;9.656;2023-09-18T03:28:29;23.30;99.90
4366;DHT22;2196;47.422;9.656;2023-09-18T03:30:57;23.30;99.90
4366;DHT22;2196;47.422;9.656;2023-09-18T03:33:24;23.30;99.90
4366;DHT22;2196;47.422;9.656;2023-09-18T03:35:52;23.20;99.90
4366;DHT22;2196;47.422;9.656;2023-09-18T03:38:20;23.10;99.90
4366;DHT22;2196;47.422;9.656;2023-09-18T03:40:49;23.10;99.90
4366;DHT22;2196;47.422;9.656;2023-09-18T03:43:16;23.00;99.90
4366;DHT22;2196;47.422;9.656;2023-09-18T03:45:43;22.90;99.90
4366;DHT22;2196;47.422;9.656;2023-09-18T03:48:10;22.90;99.90
4366;DHT22;2196;47.422;9.656;2023-09-18T03:50:38;22.80;99.90
4366;DHT22;2196;47.422;9.656;2023-09-18T03:53:05;22.50;99.90
4366;DHT22;2196;47.422;9.656;2023-09-18T03:55:32;22.10;99.90
4366;DHT22;2196;47.422;9.656;2023-09-18T03:58:00;21.90;99.90
4366;DHT22;2196;47.422;9.656;2023-09-18T04:00:28;21.70;99.90
4366;DHT22;2196;47.422;9.656;2023-09-18T04:02:55;21.70;99.90
4366;DHT22;2196;47.422;9.656;2023-09-18T04:05:23;21.50;99.90
4366;DHT22;2196;47.422;9.656;2023-09-18T04:07:50;21.50;99.90
4366;DHT22;2196;47.422;9.656;2023-09-18T04:10:17;21.30;99.90
4366;DHT22;2196;47.422;9.656;2023-09-18T04:12:48;21.20;99.90
4366;DHT22;2196;47.422;9.656;2023-09-18T04:15:18;21.10;99.90
4366;DHT22;2196;47.422;9.656;2023-09-18T04:17:45;21.20;99.90
4366;DHT22;2196;47.422;9.656;2023-09-18T04:20:12;21.40;99.90
4366;DHT22;2196;47.422;9.656;2023-09-18T04:22:45;21.40;99.90
4366;DHT22;2196;47.422;9.656;2023-09-18T04:25:15;21.40;99.90
4366;DHT22;2196;47.422;9.656;2023-09-18T04:27:42;21.50;99.90
4366;DHT22;2196;47.422;9.656;2023-09-18T04:30:10;21.50;99.90
4366;DHT22;2196;47.422;9.656;2023-09-18T04:32:40;21.40;99.90
4366;DHT22;2196;47.422;9.656;2023-09-18T04:35:07;21.30;99.90
4366;DHT22;2196;47.422;9.656;2023-09-18T04:37:37;21.30;99.90
4366;DHT22;2196;47.422;9.656;2023-09-18T04:40:06;21.20;99.90
4366;DHT22;2196;47.422;9.656;2023-09-18T04:42:37;21.10;99.90
4366;DHT22;2196;47.422;9.656;2023-09-18T04:45:06;21.10;99.90
4366;DHT22;2196;47.422;9.656;2023-09-18T04:47:33;21.10;99.90
4366;DHT22;2196;47.422;9.656;2023-09-18T04:50:01;20.90;99.90
4366;DHT22;2196;47.422;9.656;2023-09-18T04:52:31;20.70;99.90
4366;DHT22;2196;47.422;9.656;2023-09-18T04:54:58;20.70;99.90
4366;DHT22;2196;47.422;9.656;2023-09-18T04:57:25;20.50;99.90
4366;DHT22;2196;47.422;9.656;2023-09-18T04:59:52;20.40;99.90
4366;DHT22;2196;47.422;9.656;2023-09-18T05:02:20;20.30;99.90
4366;DHT22;2196;47.422;9.656;2023-09-18T05:04:47;20.20;99.90
4366;DHT22;2196;47.422;9.656;2023-09-18T05:07:16;20.10;99.90
4366;DHT22;2196;47.422;9.656;2023-09-18T05:09:43;20.10;99.90
4366;DHT22;2196;47.422;9.656;2023-09-18T05:12:10;20.10;99.90
4366;DHT22;2196;47.422;9.656;2023-09-18T05:14:39;20.00;99.90
4366;DHT22;2196;47.422;9.656;2023-09-18T05:17:09;19.90;99.90
4366;DHT22;2196;47.422;9.656;2023-09-18T05:19:36;20.00;99.90
4366;DHT22;2196;47.422;9.656;2023-09-18T05:22:03;19.90;99.90
4366;DHT22;2196;47.422;9.656;2023-09-18T05:24:32;19.90;99.90
4366;DHT22;2196;47.422;9.656;2023-09-18T05:26:59;19.90;99.90
4366;DHT22;2196;47.422;9.656;2023-09-18T05:29:26;19.90;99.90
4366;DHT22;2196;47.422;9.656;2023-09-18T05:31:53;19.90;99.90
4366;DHT22;2196;47.422;9.656;2023-09-18T05:34:22;19.90;99.90
4366;DHT22;2196;47.422;9.656;2023-09-18T05:36:49;19.80;99.90
4366;DHT22;2196;47.422;9.656;2023-09-18T05:39:16;19.90;99.90
4366;DHT22;2196;47.422;9.656;2023-09-18T05:41:49;20.00;99.90
4366;DHT22;2196;47.422;9.656;2023-09-18T05:44:16;20.10;99.90
4366;DHT22;2196;47.422;9.656;2023-09-18T05:46:43;20.10;99.90
4366;DHT22;2196;47.422;9.656;2023-09-18T05:49:10;20.20;99.90
4366;DHT22;2196;47.422;9.656;2023-09-18T05:51:38;20.30;99.90
4366;DHT22;2196;47.422;9.656;2023-09-18T05:54:05;20.40;99.90
4366;DHT22;2196;47.422;9.656;2023-09-18T05:56:32;20.50;99.90
4366;DHT22;2196;47.422;9.656;2023-09-18T05:59:00;20.60;99.90
4366;DHT22;2196;47.422;9.656;2023-09-18T06:01:27;20.70;99.90
4366;DHT22;2196;47.422;9.656;2023-09-18T06:03:55;21.00;99.90
4366;DHT22;2196;47.422;9.656;2023-09-18T06:06:22;21.40;99.90
4366;DHT22;2196;47.422;9.656;2023-09-18T06:08:50;21.80;99.90
4366;DHT22;2196;47.422;9.656;2023-09-18T06:11:19;22.20;99.90
4366;DHT22;2196;47.422;9.656;2023-09-18T06:13:46;22.20;99.90
4366;DHT22;2196;47.422;9.656;2023-09-18T06:16:14;22.20;99.90
4366;DHT22;2196;47.422;9.656;2023-09-18T06:18:41;22.10;99.90
4366;DHT22;2196;47.422;9.656;2023-09-18T06:21:09;22.20;99.90
4366;DHT22;2196;47.422;9.656;2023-09-18T06:23:36;22.40;99.90
4366;DHT22;2196;47.422;9.656;2023-09-18T06:26:03;22.50;99.90
4366;DHT22;2196;47.422;9.656;2023-09-18T06:28:30;22.50;99.90
4366;DHT22;2196;47.422;9.656;2023-09-18T06:30:57;22.50;99.90
4366;DHT22;2196;47.422;9.656;2023-09-18T06:33:25;22.50;99.90
4366;DHT22;2196;47.422;9.656;2023-09-18T06:35:52;22.40;99.90
4366;DHT22;2196;47.422;9.656;2023-09-18T06:38:20;22.40;99.90
4366;DHT22;2196;47.422;9.656;2023-09-18T06:40:47;22.30;99.90
4366;DHT22;2196;47.422;9.656;2023-09-18T06:43:15;22.30;99.90
4366;DHT22;2196;47.422;9.656;2023-09-18T06:45:43;22.20;99.90
4366;DHT22;2196;47.422;9.656;2023-09-18T06:48:10;22.20;99.90
4366;DHT22;2196;47.422;9.656;2023-09-18T06:50:38;22.20;99.90
4366;DHT22;2196;47.422;9.656;2023-09-18T06:53:05;22.20;99.90
4366;DHT22;2196;47.422;9.656;2023-09-18T06:55:32;22.20;99.90
4366;DHT22;2196;47.422;9.656;2023-09-18T06:57:59;22.30;99.90
4366;DHT22;2196;47.422;9.656;2023-09-18T07:00:26;22.30;99.90
4366;DHT22;2196;47.422;9.656;2023-09-18T07:02:53;22.30;99.90
4366;DHT22;2196;47.422;9.656;2023-09-18T07:05:21;22.20;99.90
4366;DHT22;2196;47.422;9.656;2023-09-18T07:07:49;22.20;99.90
4366;DHT22;2196;47.422;9.656;2023-09-18T07:10:16;22.10;99.90
4366;DHT22;2196;47.422;9.656;2023-09-18T07:12:43;22.00;99.90
4366;DHT22;2196;47.422;9.656;2023-09-18T07:15:10;22.00;99.90
4366;DHT22;2196;47.422;9.656;2023-09-18T07:17:37;21.90;99.90
4366;DHT22;2196;47.422;9.656;2023-09-18T07:20:05;21.80;99.90
4366;DHT22;2196;47.422;9.656;2023-09-18T07:22:39;21.70;99.90
4366;DHT22;2196;47.422;9.656;2023-09-18T07:25:08;21.60;99.90
4366;DHT22;2196;47.422;9.656;2023-09-18T07:27:35;21.60;99.90
4366;DHT22;2196;47.422;9.656;2023-09-18T07:30:06;21.70;99.90
4366;DHT22;2196;47.422;9.656;2023-09-18T07:32:33;21.70;99.90
4366;DHT22;2196;47.422;9.656;2023-09-18T07:35:00;21.70;99.90
4366;DHT22;2196;47.422;9.656;2023-09-18T07:37:27;21.70;99.90
4366;DHT22;2196;47.422;9.656;2023-09-18T07:39:54;21.80;99.90
4366;DHT22;2196;47.422;9.656;2023-09-18T07:42:25;21.80;99.90
4366;DHT22;2196;47.422;9.656;2023-09-18T07:44:52;21.80;99.90
4366;DHT22;2196;47.422;9.656;2023-09-18T07:47:20;21.80;99.90
4366;DHT22;2196;47.422;9.656;2023-09-18T07:49:48;21.80;99.90
4366;DHT22;2196;47.422;9.656;2023-09-18T07:52:16;21.90;99.90
4366;DHT22;2196;47.422;9.656;2023-09-18T07:54:43;21.90;99.90
4366;DHT22;2196;47.422;9.656;2023-09-18T07:57:10;21.90;99.90
4366;DHT22;2196;47.422;9.656;2023-09-18T07:59:38;21.90;99.90
4366;DHT22;2196;47.422;9.656;2023-09-18T08:02:07;21.90;99.90
4366;DHT22;2196;47.422;9.656;2023-09-18T08:04:35;21.90;99.90
4366;DHT22;2196;47.422;9.656;2023-09-18T08:07:02;21.90;99.90
4366;DHT22;2196;47.422;9.656;2023-09-18T08:09:31;21.90;99.90
4366;DHT22;2196;47.422;9.656;2023-09-18T08:12:01;22.00;99.90
4366;DHT22;2196;47.422;9.656;2023-09-18T08:14:28;21.90;99.90
4366;DHT22;2196;47.422;9.656;2023-09-18T08:16:58;21.80;99.90
4366;DHT22;2196;47.422;9.656;2023-09-18T08:19:25;21.80;99.90
4366;DHT22;2196;47.422;9.656;2023-09-18T08:21:53;21.80;99.90
4366;DHT22;2196;47.422;9.656;2023-09-18T08:24:22;21.70;99.90
4366;DHT22;2196;47.422;9.656;2023-09-18T08:26:49;21.70;99.90
4366;DHT22;2196;47.422;9.656;2023-09-18T08:29:16;21.60;99.90
4366;DHT22;2196;47.422;9.656;2023-09-18T08:31:44;21.50;99.90
4366;DHT22;2196;47.422;9.656;2023-09-18T08:34:12;21.40;99.90
4366;DHT22;2196;47.422;9.656;2023-09-18T08:36:40;21.40;99.90
4366;DHT22;2196;47.422;9.656;2023-09-18T08:39:08;21.40;99.90
4366;DHT22;2196;47.422;9.656;2023-09-18T08:41:38;21.40;99.90
4366;DHT22;2196;47.422;9.656;2023-09-18T08:44:08;21.30;99.90
4366;DHT22;2196;47.422;9.656;2023-09-18T08:46:36;21.10;99.90
4366;DHT22;2196;47.422;9.656;2023-09-18T08:49:04;21.10;99.90
4366;DHT22;2196;47.422;9.656;2023-09-18T08:51:33;21.00;99.90
4366;DHT22;2196;47.422;9.656;2023-09-18T08:54:01;20.90;99.90
4366;DHT22;2196;47.422;9.656;2023-09-18T08:56:29;20.90;99.90
4366;DHT22;2196;47.422;9.656;2023-09-18T08:58:56;20.80;99.90
4366;DHT22;2196;47.422;9.656;2023-09-18T09:01:25;20.80;99.90
4366;DHT22;2196;47.422;9.656;2023-09-18T09:03:52;20.70;99.90
4366;DHT22;2196;47.422;9.656;2023-09-18T09:06:19;20.70;99.90
4366;DHT22;2196;47.422;9.656;2023-09-18T09:08:47;20.30;99.90
4366;DHT22;2196;47.422;9.656;2023-09-18T09:11:14;20.10;99.90
4366;DHT22;2196;47.422;9.656;2023-09-18T09:13:41;19.90;99.90
4366;DHT22;2196;47.422;9.656;2023-09-18T09:16:11;19.70;99.90
4366;DHT22;2196;47.422;9.656;2023-09-18T09:18:47;19.60;99.90
4366;DHT22;2196;47.422;9.656;2023-09-18T09:21:14;19.50;99.90
4366;DHT22;2196;47.422;9.656;2023-09-18T09:23:48;19.40;99.90
4366;DHT22;2196;47.422;9.656;2023-09-18T09:26:19;19.30;99.90
4366;DHT22;2196;47.422;9.656;2023-09-18T09:28:47;19.20;99.90
4366;DHT22;2196;47.422;9.656;2023-09-18T09:31:24;19.20;99.90
4366;DHT22;2196;47.422;9.656;2023-09-18T09:33:52;19.30;99.90
4366;DHT22;2196;47.422;9.656;2023-09-18T09:36:19;19.40;99.90
4366;DHT22;2196;47.422;9.656;2023-09-18T09:38:48;19.40;99.90
4366;DHT22;2196;47.422;9.656;2023-09-18T09:41:15;19.40;99.90
4366;DHT22;2196;47.422;9.656;2023-09-18T09:43:43;19.30;99.90
4366;DHT22;2196;47.422;9.656;2023-09-18T09:46:15;19.30;99.90
4366;DHT22;2196;47.422;9.656;2023-09-18T09:48:58;19.20;99.90
4366;DHT22;2196;47.422;9.656;2023-09-18T09:51:26;19.20;99.90
4366;DHT22;2196;47.422;9.656;2023-09-18T09:53:55;19.20;99.90
4366;DHT22;2196;47.422;9.656;2023-09-18T09:56:43;19.10;99.90
4366;DHT22;2196;47.422;9.656;2023-09-18T09:59:11;18.90;99.90
4366;DHT22;2196;47.422;9.656;2023-09-18T10:01:38;18.80;99.90
4366;DHT22;2196;47.422;9.656;2023-09-18T10:04:09;18.70;99.90
4366;DHT22;2196;47.422;9.656;2023-09-18T10:06:37;18.50;99.90
4366;DHT22;2196;47.422;9.656;2023-09-18T10:09:07;18.40;99.90
4366;DHT22;2196;47.422;9.656;2023-09-18T10:11:40;18.30;99.90
4366;DHT22;2196;47.422;9.656;2023-09-18T10:14:12;18.20;99.90
4366;DHT22;2196;47.422;9.656;2023-09-18T10:16:41;18.20;99.90
4366;DHT22;2196;47.422;9.656;2023-09-18T10:19:17;18.30;99.90
4366;DHT22;2196;47.422;9.656;2023-09-18T10:21:53;18.30;99.90
4366;DHT22;2196;47.422;9.656;2023-09-18T10:24:29;18.30;99.90
4366;DHT22;2196;47.422;9.656;2023-09-18T10:26:59;18.30;99.90
4366;DHT22;2196;47.422;9.656;2023-09-18T10:29:27;18.20;99.90
4366;DHT22;2196;47.422;9.656;2023-09-18T10:31:55;18.10;99.90
4366;DHT22;2196;47.422;9.656;2023-09-18T10:34:23;18.10;99.90
4366;DHT22;2196;47.422;9.656;2023-09-18T10:36:52;18.00;99.90
4366;DHT22;2196;47.422;9.656;2023-09-18T10:39:20;18.00;99.90
4366;DHT22;2196;47.422;9.656;2023-09-18T10:41:55;18.00;99.90
4366;DHT22;2196;47.422;9.656;2023-09-18T10:44:25;18.00;99.90
4366;DHT22;2196;47.422;9.656;2023-09-18T10:46:53;18.00;99.90
4366;DHT22;2196;47.422;9.656;2023-09-18T10:49:21;18.00;99.90
4366;DHT22;2196;47.422;9.656;2023-09-18T10:51:54;18.10;99.90
4366;DHT22;2196;47.422;9.656;2023-09-18T10:54:26;18.10;99.90
4366;DHT22;2196;47.422;9.656;2023-09-18T10:56:56;18.10;99.90
4366;DHT22;2196;47.422;9.656;2023-09-18T10:59:24;18.20;99.90
4366;DHT22;2196;47.422;9.656;2023-09-18T11:01:51;18.30;99.90
4366;DHT22;2196;47.422;9.656;2023-09-18T11:04:20;18.40;99.90
4366;DHT22;2196;47.422;9.656;2023-09-18T11:07:19;18.50;99.90
4366;DHT22;2196;47.422;9.656;2023-09-18T11:09:46;18.70;99.90
4366;DHT22;2196;47.422;9.656;2023-09-18T11:12:16;18.80;99.90
4366;DHT22;2196;47.422;9.656;2023-09-18T11:14:45;19.00;99.90
4366;DHT22;2196;47.422;9.656;2023-09-18T11:17:33;19.20;99.90
4366;DHT22;2196;47.422;9.656;2023-09-18T11:20:09;19.30;99.90
4366;DHT22;2196;47.422;9.656;2023-09-18T11:22:38;19.40;99.90
4366;DHT22;2196;47.422;9.656;2023-09-18T11:25:36;19.40;99.90
4366;DHT22;2196;47.422;9.656;2023-09-18T11:28:06;19.60;99.90
4366;DHT22;2196;47.422;9.656;2023-09-18T11:30:36;19.70;99.90
4366;DHT22;2196;47.422;9.656;2023-09-18T11:33:06;19.80;99.90
4366;DHT22;2196;47.422;9.656;2023-09-18T11:35:35;19.90;99.90
4366;DHT22;2196;47.422;9.656;2023-09-18T11:38:04;20.10;99.90
4366;DHT22;2196;47.422;9.656;2023-09-18T11:40:33;20.30;99.90
4366;DHT22;2196;47.422;9.656;2023-09-18T11:43:24;20.30;99.90
4366;DHT22;2196;47.422;9.656;2023-09-18T11:45:57;20.20;99.90
4366;DHT22;2196;47.422;9.656;2023-09-18T11:48:26;20.30;99.90
4366;DHT22;2196;47.422;9.656;2023-09-18T11:50:56;20.40;99.90
4366;DHT22;2196;47.422;9.656;2023-09-18T11:53:24;20.50;99.90
4366;DHT22;2196;47.422;9.656;2023-09-18T11:55:51;20.50;99.90
4366;DHT22;2196;47.422;9.656;2023-09-18T11:58:20;20.50;99.90
4366;DHT22;2196;47.422;9.656;2023-09-18T12:00:49;20.50;99.90
4366;DHT22;2196;47.422;9.656;2023-09-18T12:03:17;20.40;99.90
4366;DHT22;2196;47.422;9.656;2023-09-18T12:05:55;20.40;99.90
4366;DHT22;2196;47.422;9.656;2023-09-18T12:08:22;20.40;99.90
4366;DHT22;2196;47.422;9.656;2023-09-18T12:10:52;20.40;99.90
4366;DHT22;2196;47.422;9.656;2023-09-18T12:13:21;20.20;99.90
4366;DHT22;2196;47.422;9.656;2023-09-18T12:15:48;20.20;99.90
4366;DHT22;2196;47.422;9.656;2023-09-18T12:18:16;20.20;99.90
4366;DHT22;2196;47.422;9.656;2023-09-18T12:20:47;20.10;99.90
4366;DHT22;2196;47.422;9.656;2023-09-18T12:23:15;20.00;99.90
4366;DHT22;2196;47.422;9.656;2023-09-18T12:25:46;20.00;99.90
4366;DHT22;2196;47.422;9.656;2023-09-18T12:28:13;20.00;99.90
4366;DHT22;2196;47.422;9.656;2023-09-18T12:30:43;20.00;99.90
4366;DHT22;2196;47.422;9.656;2023-09-18T12:33:13;19.90;99.90
4366;DHT22;2196;47.422;9.656;2023-09-18T12:35:40;19.80;99.90
4366;DHT22;2196;47.422;9.656;2023-09-18T12:38:14;19.90;99.90
4366;DHT22;2196;47.422;9.656;2023-09-18T12:40:42;20.00;99.90
4366;DHT22;2196;47.422;9.656;2023-09-18T12:43:10;20.00;99.90
4366;DHT22;2196;47.422;9.656;2023-09-18T12:45:38;20.20;99.90
4366;DHT22;2196;47.422;9.656;2023-09-18T12:48:07;20.40;99.90
4366;DHT22;2196;47.422;9.656;2023-09-18T12:50:33;20.60;99.90
4366;DHT22;2196;47.422;9.656;2023-09-18T12:53:09;20.80;99.90
4366;DHT22;2196;47.422;9.656;2023-09-18T12:55:37;21.00;99.90
4366;DHT22;2196;47.422;9.656;2023-09-18T12:58:04;20.90;99.90
4366;DHT22;2196;47.422;9.656;2023-09-18T13:00:34;20.90;99.90
4366;DHT22;2196;47.422;9.656;2023-09-18T13:03:03;20.90;99.90
4366;DHT22;2196;47.422;9.656;2023-09-18T13:05:31;20.90;99.90
4366;DHT22;2196;47.422;9.656;2023-09-18T13:08:03;20.90;99.90
4366;DHT22;2196;47.422;9.656;2023-09-18T13:10:42;20.80;99.90
4366;DHT22;2196;47.422;9.656;2023-09-18T13:13:16;20.50;99.90
4366;DHT22;2196;47.422;9.656;2023-09-18T13:15:43;20.50;99.90
4366;DHT22;2196;47.422;9.656;2023-09-18T13:18:12;20.40;99.90
4366;DHT22;2196;47.422;9.656;2023-09-18T13:20:41;20.50;99.90
4366;DHT22;2196;47.422;9.656;2023-09-18T13:23:08;20.40;99.90
4366;DHT22;2196;47.422;9.656;2023-09-18T13:25:37;20.30;99.90
4366;DHT22;2196;47.422;9.656;2023-09-18T13:28:07;20.40;99.90
4366;DHT22;2196;47.422;9.656;2023-09-18T13:30:36;20.30;99.90
4366;DHT22;2196;47.422;9.656;2023-09-18T13:33:06;20.10;99.90
4366;DHT22;2196;47.422;9.656;2023-09-18T13:35:34;20.10;99.90
4366;DHT22;2196;47.422;9.656;2023-09-18T13:38:03;20.00;99.90
4366;DHT22;2196;47.422;9.656;2023-09-18T13:40:31;20.00;99.90
4366;DHT22;2196;47.422;9.656;2023-09-18T13:43:00;19.90;99.90
4366;DHT22;2196;47.422;9.656;2023-09-18T13:45:27;20.00;99.90
4366;DHT22;2196;47.422;9.656;2023-09-18T13:47:54;20.00;99.90
4366;DHT22;2196;47.422;9.656;2023-09-18T13:50:21;20.00;99.90
4366;DHT22;2196;47.422;9.656;2023-09-18T13:52:48;19.90;99.90
4366;DHT22;2196;47.422;9.656;2023-09-18T13:55:17;19.80;99.90
4366;DHT22;2196;47.422;9.656;2023-09-18T13:57:44;19.80;99.90
4366;DHT22;2196;47.422;9.656;2023-09-18T14:00:11;19.80;99.90
4366;DHT22;2196;47.422;9.656;2023-09-18T14:02:40;19.70;99.90
4366;DHT22;2196;47.422;9.656;2023-09-18T14:05:08;19.70;99.90
4366;DHT22;2196;47.422;9.656;2023-09-18T14:07:36;19.70;99.90
4366;DHT22;2196;47.422;9.656;2023-09-18T14:10:05;19.60;99.90
4366;DHT22;2196;47.422;9.656;2023-09-18T14:12:34;19.70;99.90
4366;DHT22;2196;47.422;9.656;2023-09-18T14:15:01;19.80;99.90
4366;DHT22;2196;47.422;9.656;2023-09-18T14:17:28;19.70;99.90
4366;DHT22;2196;47.422;9.656;2023-09-18T14:19:56;19.60;99.90
4366;DHT22;2196;47.422;9.656;2023-09-18T14:22:24;19.60;99.90
4366;DHT22;2196;47.422;9.656;2023-09-18T14:24:51;19.40;99.90
4366;DHT22;2196;47.422;9.656;2023-09-18T14:27:18;19.40;99.90
4366;DHT22;2196;47.422;9.656;2023-09-18T14:29:47;19.40;99.90
4366;DHT22;2196;47.422;9.656;2023-09-18T14:32:14;19.40;99.90
4366;DHT22;2196;47.422;9.656;2023-09-18T14:34:41;19.40;99.90
4366;DHT22;2196;47.422;9.656;2023-09-18T14:37:08;19.30;99.90
4366;DHT22;2196;47.422;9.656;2023-09-18T14:39:35;19.30;99.90
4366;DHT22;2196;47.422;9.656;2023-09-18T14:42:02;19.50;99.90
4366;DHT22;2196;47.422;9.656;2023-09-18T14:44:29;19.40;99.90
4366;DHT22;2196;47.422;9.656;2023-09-18T14:46:58;19.40;99.90
4366;DHT22;2196;47.422;9.656;2023-09-18T14:49:25;19.50;99.90
4366;DHT22;2196;47.422;9.656;2023-09-18T14:51:53;19.50;99.90
4366;DHT22;2196;47.422;9.656;2023-09-18T14:54:20;19.50;99.90
4366;DHT22;2196;47.422;9.656;2023-09-18T14:56:52;19.30;99.90
4366;DHT22;2196;47.422;9.656;2023-09-18T14:59:22;19.40;99.90
4366;DHT22;2196;47.422;9.656;2023-09-18T15:01:48;19.40;99.90
4366;DHT22;2196;47.422;9.656;2023-09-18T15:04:17;19.30;99.90
4366;DHT22;2196;47.422;9.656;2023-09-18T15:06:48;19.40;99.90
4366;DHT22;2196;47.422;9.656;2023-09-18T15:09:15;19.40;99.90
4366;DHT22;2196;47.422;9.656;2023-09-18T15:11:43;19.30;99.90
4366;DHT22;2196;47.422;9.656;2023-09-18T15:14:10;19.40;99.90
4366;DHT22;2196;47.422;9.656;2023-09-18T15:16:37;19.40;99.90
4366;DHT22;2196;47.422;9.656;2023-09-18T15:19:04;19.40;99.90
4366;DHT22;2196;47.422;9.656;2023-09-18T15:21:33;19.40;99.90
4366;DHT22;2196;47.422;9.656;2023-09-18T15:24:00;19.30;99.90
4366;DHT22;2196;47.422;9.656;2023-09-18T15:26:27;19.30;99.90
4366;DHT22;2196;47.422;9.656;2023-09-18T15:28:54;19.40;99.90
4366;DHT22;2196;47.422;9.656;2023-09-18T15:31:21;19.40;99.90
4366;DHT22;2196;47.422;9.656;2023-09-18T15:33:50;19.40;99.90
4366;DHT22;2196;47.422;9.656;2023-09-18T15:36:20;19.50;99.90
4366;DHT22;2196;47.422;9.656;2023-09-18T15:38:50;19.40;99.90
4366;DHT22;2196;47.422;9.656;2023-09-18T15:41:17;19.40;99.90
4366;DHT22;2196;47.422;9.656;2023-09-18T15:43:44;19.40;99.90
4366;DHT22;2196;47.422;9.656;2023-09-18T15:46:12;19.20;99.90
4366;DHT22;2196;47.422;9.656;2023-09-18T15:48:39;19.20;99.90
4366;DHT22;2196;47.422;9.656;2023-09-18T15:51:06;19.10;99.90
4366;DHT22;2196;47.422;9.656;2023-09-18T15:53:33;19.00;99.90
4366;DHT22;2196;47.422;9.656;2023-09-18T15:56:01;18.90;99.90
4366;DHT22;2196;47.422;9.656;2023-09-18T15:58:28;18.80;99.90
4366;DHT22;2196;47.422;9.656;2023-09-18T16:00:55;18.80;99.90
4366;DHT22;2196;47.422;9.656;2023-09-18T16:03:23;18.80;99.90
4366;DHT22;2196;47.422;9.656;2023-09-18T16:05:51;18.80;99.90
4366;DHT22;2196;47.422;9.656;2023-09-18T16:08:19;18.90;99.90
4366;DHT22;2196;47.422;9.656;2023-09-18T16:10:46;18.80;99.90